createdAt,value
2017-12-19T00:01:52.415Z,4.00
2017-12-19T00:04:19.011Z,4.10
2017-12-19T00:06:45.261Z,4.10
2017-12-19T00:09:11.489Z,4.10
2017-12-19T00:11:37.734Z,4.20
2017-12-19T00:14:04.331Z,4.20
2017-12-19T00:16:31.204Z,4.20
2017-12-19T00:18:57.426Z,4.20
2017-12-19T00:21:23.678Z,4.20
2017-12-19T00:23:50.345Z,4.20
2017-12-19T00:26:16.641Z,4.20
2017-12-19T00:28:43.227Z,4.10
2017-12-19T00:31:09.476Z,4.10
2017-12-19T00:33:35.723Z,4.10
2017-12-19T00:36:02.353Z,4.00
2017-12-19T00:38:28.629Z,4.00
2017-12-19T00:40:54.862Z,4.10
2017-12-19T00:43:21.096Z,4.10
2017-12-19T00:45:47.350Z,4.00
2017-12-19T00:48:13.578Z,4.10
2017-12-19T00:50:39.808Z,4.10
2017-12-19T00:53:06.064Z,4.10
2017-12-19T00:55:32.300Z,4.00
2017-12-19T00:57:58.554Z,4.00
2017-12-19T01:00:24.732Z,4.10
2017-12-19T01:02:51.021Z,4.10
2017-12-19T01:05:17.313Z,4.00
2017-12-19T01:07:44.559Z,3.90
2017-12-19T01:10:11.180Z,3.80
2017-12-19T01:12:37.398Z,3.80
2017-12-19T01:15:04.876Z,3.60
2017-12-19T01:17:31.487Z,3.70
2017-12-19T01:19:57.705Z,3.70
2017-12-19T01:22:23.952Z,3.70
2017-12-19T01:24:50.189Z,3.80
2017-12-19T01:27:16.412Z,3.70
2017-12-19T01:29:42.612Z,3.60
2017-12-19T01:32:08.846Z,3.60
2017-12-19T01:34:35.075Z,3.70
2017-12-19T01:37:01.313Z,3.90
2017-12-19T01:39:27.532Z,3.90
2017-12-19T01:41:53.766Z,4.00
2017-12-19T01:44:20.400Z,4.10
2017-12-19T01:46:46.620Z,4.00
2017-12-19T01:49:12.827Z,3.90
2017-12-19T01:51:39.118Z,3.80
2017-12-19T01:54:05.730Z,3.90
2017-12-19T01:56:31.943Z,3.90
2017-12-19T01:58:58.153Z,3.90
2017-12-19T02:01:24.379Z,3.90
2017-12-19T02:03:50.611Z,3.70
2017-12-19T02:06:16.847Z,3.80
2017-12-19T02:08:43.093Z,3.80
2017-12-19T02:11:09.336Z,3.90
2017-12-19T02:13:35.551Z,4.00
2017-12-19T02:16:02.736Z,4.00
2017-12-19T02:18:29.009Z,4.00
2017-12-19T02:20:55.269Z,3.90
2017-12-19T02:23:21.529Z,4.00
2017-12-19T02:25:47.794Z,4.00
2017-12-19T02:28:14.029Z,3.90
2017-12-19T02:30:41.177Z,3.80
2017-12-19T02:33:07.435Z,3.70
2017-12-19T02:35:33.700Z,3.60
2017-12-19T02:38:00.069Z,3.60
2017-12-19T02:40:26.377Z,3.60
2017-12-19T02:45:50.430Z,3.50
2017-12-19T02:48:16.667Z,3.50
2017-12-19T02:50:42.917Z,3.50
2017-12-19T02:53:09.156Z,3.60
2017-12-19T02:55:35.416Z,3.70
2017-12-19T02:58:03.029Z,3.80
2017-12-19T03:00:30.087Z,3.80
2017-12-19T03:02:56.346Z,3.70
2017-12-19T03:05:22.602Z,3.80
2017-12-19T03:07:48.847Z,3.70
2017-12-19T03:10:15.466Z,3.60
2017-12-19T03:12:41.762Z,3.60
2017-12-19T03:15:08.009Z,3.60
2017-12-19T03:17:34.235Z,3.60
2017-12-19T03:20:00.496Z,3.50
2017-12-19T03:22:27.212Z,3.50
2017-12-19T03:24:53.936Z,3.70
2017-12-19T03:27:20.645Z,3.70
2017-12-19T03:29:46.954Z,3.70
2017-12-19T03:32:13.565Z,3.90
2017-12-19T03:34:39.805Z,3.90
2017-12-19T03:37:08.534Z,4.00
2017-12-19T03:39:34.811Z,4.10
2017-12-19T03:42:01.087Z,4.10
2017-12-19T03:44:27.332Z,4.20
2017-12-19T03:46:53.580Z,4.30
2017-12-19T03:49:20.121Z,4.20
2017-12-19T03:51:46.367Z,4.20
2017-12-19T03:54:12.589Z,4.30
2017-12-19T03:56:38.832Z,4.30
2017-12-19T03:59:05.110Z,4.30
2017-12-19T04:01:31.369Z,4.20
2017-12-19T04:03:57.617Z,4.20
2017-12-19T04:06:24.229Z,4.30
2017-12-19T04:08:50.484Z,4.30
2017-12-19T04:11:17.102Z,4.20
2017-12-19T04:13:43.367Z,4.20
2017-12-19T04:16:09.602Z,4.30
2017-12-19T04:18:35.846Z,4.20
2017-12-19T04:21:02.100Z,4.10
2017-12-19T04:23:28.358Z,4.20
2017-12-19T04:25:54.620Z,4.10
2017-12-19T04:28:20.877Z,4.30
2017-12-19T04:30:47.146Z,4.30
2017-12-19T04:33:13.765Z,4.30
2017-12-19T04:35:40.014Z,4.30
2017-12-19T04:38:07.035Z,4.30
2017-12-19T04:40:33.272Z,4.30
2017-12-19T04:43:00.140Z,4.20
2017-12-19T04:45:27.726Z,4.10
2017-12-19T04:47:53.964Z,4.10
2017-12-19T04:50:20.204Z,4.20
2017-12-19T04:52:46.462Z,4.20
2017-12-19T04:55:12.709Z,4.20
2017-12-19T04:57:39.324Z,4.20
2017-12-19T05:00:05.592Z,4.20
2017-12-19T05:02:31.833Z,4.30
2017-12-19T05:04:58.052Z,4.30
2017-12-19T05:07:24.351Z,4.30
2017-12-19T05:09:50.978Z,4.20
2017-12-19T05:12:17.252Z,4.20
2017-12-19T05:14:43.485Z,4.20
2017-12-19T05:17:09.759Z,4.20
2017-12-19T05:19:36.014Z,4.20
2017-12-19T05:22:02.676Z,4.10
2017-12-19T05:24:28.906Z,4.10
2017-12-19T05:26:55.139Z,4.10
2017-12-19T05:29:21.400Z,4.10
2017-12-19T05:31:47.653Z,4.20
2017-12-19T05:34:13.889Z,4.20
2017-12-19T05:36:40.490Z,4.20
2017-12-19T05:39:06.750Z,4.20
2017-12-19T05:41:32.974Z,4.20
2017-12-19T05:43:59.210Z,4.20
2017-12-19T05:46:25.482Z,4.10
2017-12-19T05:48:51.734Z,4.10
2017-12-19T05:51:18.015Z,3.90
2017-12-19T05:53:44.297Z,3.80
2017-12-19T05:56:10.545Z,4.00
2017-12-19T05:58:36.822Z,4.00
2017-12-19T06:01:03.098Z,4.00
2017-12-19T06:03:29.369Z,4.00
2017-12-19T06:05:55.630Z,4.10
2017-12-19T06:08:21.901Z,4.20
2017-12-19T06:10:48.134Z,4.20
2017-12-19T06:13:14.391Z,4.30
2017-12-19T06:15:40.657Z,4.40
2017-12-19T06:18:07.831Z,4.30
2017-12-19T06:20:34.479Z,4.30
2017-12-19T06:23:00.743Z,4.30
2017-12-19T06:25:27.009Z,4.30
2017-12-19T06:27:53.250Z,4.30
2017-12-19T06:30:19.892Z,4.20
2017-12-19T06:32:46.508Z,4.20
2017-12-19T06:35:12.764Z,4.30
2017-12-19T06:37:39.391Z,4.30
2017-12-19T06:40:06.003Z,4.30
2017-12-19T06:42:32.241Z,4.30
2017-12-19T06:44:58.476Z,4.30
2017-12-19T06:47:24.766Z,4.30
2017-12-19T06:49:51.056Z,4.20
2017-12-19T06:52:17.347Z,4.20
2017-12-19T06:54:43.611Z,4.20
2017-12-19T06:57:10.226Z,4.30
2017-12-19T06:59:36.504Z,4.30
2017-12-19T07:02:02.756Z,4.40
2017-12-19T07:04:29.599Z,4.40
2017-12-19T07:06:55.847Z,4.40
2017-12-19T07:09:22.136Z,4.30
2017-12-19T07:11:48.386Z,4.40
2017-12-19T07:14:14.697Z,4.40
2017-12-19T07:16:41.731Z,4.50
2017-12-19T07:19:07.969Z,4.50
2017-12-19T07:21:34.225Z,4.50
2017-12-19T07:24:00.472Z,4.50
2017-12-19T07:26:26.987Z,4.50
2017-12-19T07:28:53.220Z,4.50
2017-12-19T07:31:19.691Z,4.30
2017-12-19T07:33:46.361Z,4.40
2017-12-19T07:36:12.617Z,4.40
2017-12-19T07:38:38.871Z,4.20
2017-12-19T07:41:05.146Z,4.10
2017-12-19T07:43:32.024Z,4.20
2017-12-19T07:45:58.284Z,4.30
2017-12-19T07:48:24.899Z,4.30
2017-12-19T07:50:51.117Z,4.30
2017-12-19T07:53:17.494Z,4.30
2017-12-19T07:55:43.779Z,4.50
2017-12-19T07:58:10.011Z,4.20
2017-12-19T08:00:36.236Z,4.30
2017-12-19T08:03:02.504Z,4.30
2017-12-19T08:05:28.743Z,4.30
2017-12-19T08:07:55.046Z,4.40
2017-12-19T08:10:21.296Z,4.30
2017-12-19T08:12:47.540Z,4.20
2017-12-19T08:15:14.744Z,4.20
2017-12-19T08:17:41.073Z,4.20
2017-12-19T08:20:07.317Z,4.20
2017-12-19T08:22:33.554Z,4.30
2017-12-19T08:24:59.814Z,4.30
2017-12-19T08:27:26.041Z,4.30
2017-12-19T08:29:52.385Z,4.40
2017-12-19T08:32:18.605Z,4.40
2017-12-19T08:34:44.870Z,4.30
2017-12-19T08:37:11.085Z,4.30
2017-12-19T08:39:37.305Z,4.30
2017-12-19T08:42:03.518Z,4.20
2017-12-19T08:44:29.738Z,4.20
2017-12-19T08:46:55.965Z,4.20
2017-12-19T08:49:22.224Z,4.20
2017-12-19T08:51:48.437Z,4.30
2017-12-19T08:54:14.698Z,4.10
2017-12-19T08:56:40.894Z,4.10
2017-12-19T08:59:07.125Z,4.30
2017-12-19T09:01:33.327Z,4.30
2017-12-19T09:03:59.545Z,4.40
2017-12-19T09:06:25.765Z,4.70
2017-12-19T09:08:52.012Z,4.80
2017-12-19T09:11:18.227Z,4.90
2017-12-19T09:13:44.442Z,4.80
2017-12-19T09:16:10.672Z,4.60
2017-12-19T09:18:37.249Z,4.80
2017-12-19T09:21:03.456Z,4.80
2017-12-19T09:23:29.683Z,4.70
2017-12-19T09:25:55.909Z,4.70
2017-12-19T09:28:22.124Z,4.50
2017-12-19T09:30:48.324Z,4.70
2017-12-19T09:33:14.553Z,5.00
2017-12-19T09:35:40.771Z,5.10
2017-12-19T09:38:06.993Z,5.30
2017-12-19T09:40:33.215Z,5.40
2017-12-19T09:42:59.453Z,5.50
2017-12-19T09:45:25.697Z,5.60
2017-12-19T09:47:51.928Z,5.50
2017-12-19T09:50:18.132Z,5.60
2017-12-19T09:52:44.351Z,5.80
2017-12-19T09:55:10.591Z,5.80
2017-12-19T09:57:36.844Z,5.80
2017-12-19T10:00:03.470Z,5.80
2017-12-19T10:02:29.674Z,5.80
2017-12-19T10:04:55.917Z,5.80
2017-12-19T10:07:22.113Z,5.50
2017-12-19T10:09:48.335Z,5.40
2017-12-19T10:12:14.566Z,5.40
2017-12-19T10:14:40.782Z,5.40
2017-12-19T10:17:07.367Z,5.40
2017-12-19T10:19:34.222Z,5.50
2017-12-19T10:22:00.500Z,5.60
2017-12-19T10:24:26.804Z,5.70
2017-12-19T10:26:53.050Z,5.80
2017-12-19T10:29:19.296Z,5.80
2017-12-19T10:31:45.554Z,5.50
2017-12-19T10:34:11.809Z,5.40
2017-12-19T10:36:38.021Z,5.40
2017-12-19T10:39:04.629Z,5.30
2017-12-19T10:41:30.849Z,5.30
2017-12-19T10:43:57.117Z,5.30
2017-12-19T10:46:23.694Z,5.50
2017-12-19T10:48:49.945Z,5.50
2017-12-19T10:51:16.233Z,5.40
2017-12-19T10:53:42.469Z,5.50
2017-12-19T10:56:08.714Z,5.60
2017-12-19T10:58:34.945Z,5.70
2017-12-19T11:01:01.189Z,5.60
2017-12-19T11:03:27.428Z,5.80
2017-12-19T11:05:53.630Z,5.90
2017-12-19T11:08:19.883Z,5.90
2017-12-19T11:10:46.096Z,5.80
2017-12-19T11:13:12.335Z,5.80
2017-12-19T11:15:39.345Z,5.90
2017-12-19T11:18:05.598Z,5.80
2017-12-19T11:20:31.883Z,5.80
2017-12-19T11:22:58.247Z,5.80
2017-12-19T11:25:24.543Z,5.70
2017-12-19T11:27:50.971Z,6.00
2017-12-19T11:30:17.688Z,6.30
2017-12-19T11:32:44.211Z,6.10
2017-12-19T11:35:10.454Z,6.20
2017-12-19T11:37:37.693Z,6.40
2017-12-19T11:40:03.957Z,6.60
2017-12-19T11:42:30.170Z,6.60
2017-12-19T11:44:56.787Z,6.80
2017-12-19T11:47:23.098Z,6.90
2017-12-19T11:49:49.324Z,7.00
2017-12-19T11:52:15.658Z,6.90
2017-12-19T11:54:41.915Z,6.60
2017-12-19T11:57:08.201Z,6.60
2017-12-19T11:59:34.458Z,6.70
2017-12-19T12:02:00.731Z,6.60
2017-12-19T12:04:26.999Z,6.60
2017-12-19T12:06:53.208Z,6.60
2017-12-19T12:09:19.459Z,6.50
2017-12-19T12:11:45.694Z,6.30
2017-12-19T12:14:11.954Z,6.20
2017-12-19T12:16:38.570Z,5.90
2017-12-19T12:19:04.796Z,5.90
2017-12-19T12:21:31.082Z,6.00
2017-12-19T12:23:57.311Z,6.00
2017-12-19T12:26:23.546Z,5.80
2017-12-19T12:28:50.113Z,5.80
2017-12-19T12:31:16.356Z,5.90
2017-12-19T12:33:42.597Z,5.80
2017-12-19T12:36:09.509Z,6.20
2017-12-19T12:38:36.601Z,6.20
2017-12-19T12:41:02.879Z,6.10
2017-12-19T12:43:29.120Z,5.80
2017-12-19T12:45:55.366Z,5.80
2017-12-19T12:48:21.980Z,5.90
2017-12-19T12:50:48.708Z,5.90
2017-12-19T12:53:15.289Z,5.90
2017-12-19T12:55:41.883Z,5.90
2017-12-19T12:58:08.104Z,5.90
2017-12-19T13:00:34.392Z,5.80
2017-12-19T13:03:00.650Z,5.80
2017-12-19T13:05:27.521Z,5.80
2017-12-19T13:07:53.744Z,5.70
2017-12-19T13:10:20.025Z,5.70
2017-12-19T13:12:46.308Z,5.70
2017-12-19T13:15:14.397Z,5.80
2017-12-19T13:17:40.617Z,5.80
2017-12-19T13:20:06.849Z,5.80
2017-12-19T13:22:33.202Z,5.90
2017-12-19T13:25:00.577Z,5.70
2017-12-19T13:27:26.837Z,5.80
2017-12-19T13:29:54.010Z,5.70
2017-12-19T13:32:20.228Z,5.60
2017-12-19T13:34:46.467Z,5.70
2017-12-19T13:37:12.672Z,5.90
2017-12-19T13:39:38.938Z,6.00
2017-12-19T13:42:05.565Z,5.80
2017-12-19T13:44:31.794Z,5.80
2017-12-19T13:46:58.007Z,5.90
2017-12-19T13:49:24.250Z,5.90
2017-12-19T13:51:50.475Z,5.90
2017-12-19T13:54:16.711Z,6.00
2017-12-19T13:56:43.338Z,5.90
2017-12-19T13:59:09.632Z,5.90
2017-12-19T14:01:35.878Z,5.90
2017-12-19T14:04:02.171Z,5.70
2017-12-19T14:06:29.244Z,5.50
2017-12-19T14:08:56.481Z,5.30
2017-12-19T14:11:22.711Z,5.20
2017-12-19T14:13:48.983Z,5.30
2017-12-19T14:16:15.207Z,5.50
2017-12-19T14:18:41.437Z,5.60
2017-12-19T14:21:07.686Z,5.70
2017-12-19T14:23:34.354Z,5.80
2017-12-19T14:26:00.631Z,5.80
2017-12-19T14:28:26.863Z,5.80
2017-12-19T14:30:53.492Z,5.90
2017-12-19T14:33:19.733Z,5.90
2017-12-19T14:35:46.017Z,5.90
2017-12-19T14:38:12.263Z,5.80
2017-12-19T14:40:38.483Z,5.80
2017-12-19T14:43:04.743Z,5.80
2017-12-19T14:45:31.973Z,5.80
2017-12-19T14:47:58.235Z,5.80
2017-12-19T14:50:24.827Z,5.70
2017-12-19T14:52:51.100Z,5.70
2017-12-19T14:55:18.159Z,5.80
2017-12-19T14:57:44.783Z,5.80
2017-12-19T15:00:12.028Z,5.70
2017-12-19T15:02:38.277Z,5.50
2017-12-19T15:05:05.184Z,5.50
2017-12-19T15:07:31.445Z,5.40
2017-12-19T15:09:58.156Z,5.20
2017-12-19T15:12:24.409Z,5.20
2017-12-19T15:14:50.703Z,5.20
2017-12-19T15:17:17.020Z,5.20
2017-12-19T15:19:43.247Z,5.30
2017-12-19T15:22:09.468Z,5.20
2017-12-19T15:24:35.709Z,5.10
2017-12-19T15:27:02.050Z,4.80
2017-12-19T15:29:28.709Z,4.80
2017-12-19T15:31:54.933Z,4.90
2017-12-19T15:34:21.149Z,5.10
2017-12-19T15:36:47.416Z,5.00
2017-12-19T15:39:14.013Z,5.10
2017-12-19T15:41:40.260Z,5.00
2017-12-19T15:44:06.536Z,5.00
2017-12-19T15:46:33.535Z,5.00
2017-12-19T15:49:00.612Z,4.90
2017-12-19T15:51:26.925Z,4.80
2017-12-19T15:53:53.181Z,4.80
2017-12-19T15:56:19.404Z,4.80
2017-12-19T15:58:45.647Z,4.80
2017-12-19T16:01:11.865Z,4.80
2017-12-19T16:03:38.671Z,4.90
2017-12-19T16:06:04.929Z,4.90
2017-12-19T16:08:31.190Z,4.60
2017-12-19T16:10:57.478Z,4.60
2017-12-19T16:13:24.079Z,4.50
2017-12-19T16:15:50.400Z,4.50
2017-12-19T16:18:16.621Z,4.50
2017-12-19T16:20:42.894Z,4.60
2017-12-19T16:23:09.481Z,4.80
2017-12-19T16:25:36.622Z,4.80
2017-12-19T16:28:02.868Z,4.70
2017-12-19T16:30:30.499Z,4.70
2017-12-19T16:32:56.771Z,4.60
2017-12-19T16:35:23.200Z,4.40
2017-12-19T16:37:50.044Z,4.40
2017-12-19T16:40:16.281Z,4.40
2017-12-19T16:42:42.484Z,4.40
2017-12-19T16:45:08.987Z,4.40
2017-12-19T16:47:35.237Z,4.40
2017-12-19T16:50:01.486Z,4.30
2017-12-19T16:52:27.732Z,4.30
2017-12-19T16:54:54.010Z,4.40
2017-12-19T16:57:20.309Z,4.40
2017-12-19T16:59:46.949Z,4.30
2017-12-19T17:02:13.560Z,4.40
2017-12-19T17:04:39.783Z,4.40
2017-12-19T17:07:06.025Z,4.60
2017-12-19T17:09:32.364Z,4.70
2017-12-19T17:11:59.126Z,4.70
2017-12-19T17:14:25.374Z,4.70
2017-12-19T17:16:51.659Z,4.70
2017-12-19T17:19:18.288Z,4.80
2017-12-19T17:21:44.540Z,4.80
2017-12-19T17:24:11.219Z,4.70
2017-12-19T17:26:37.541Z,4.70
2017-12-19T17:29:03.829Z,4.90
2017-12-19T17:31:30.696Z,4.60
2017-12-19T17:33:56.969Z,4.60
2017-12-19T17:36:23.229Z,4.50
2017-12-19T17:38:49.926Z,4.50
2017-12-19T17:41:16.226Z,4.50
2017-12-19T17:43:43.006Z,4.50
2017-12-19T17:46:09.530Z,4.50
2017-12-19T17:48:35.829Z,4.50
2017-12-19T17:51:02.114Z,4.60
2017-12-19T17:53:28.439Z,4.60
2017-12-19T17:55:54.721Z,4.60
2017-12-19T17:58:20.988Z,4.60
2017-12-19T18:00:47.246Z,4.50
2017-12-19T18:03:14.749Z,4.60
2017-12-19T18:05:41.017Z,4.60
2017-12-19T18:08:07.292Z,4.60
2017-12-19T18:10:33.599Z,4.60
2017-12-19T18:13:00.273Z,4.60
2017-12-19T18:15:26.622Z,4.40
2017-12-19T18:17:52.916Z,4.40
2017-12-19T18:20:19.198Z,4.40
2017-12-19T18:22:45.879Z,4.20
2017-12-19T18:25:12.207Z,4.30
2017-12-19T18:27:38.525Z,4.30
2017-12-19T18:30:05.185Z,3.90
2017-12-19T18:32:31.451Z,3.90
2017-12-19T18:34:57.730Z,4.00
2017-12-19T18:37:24.028Z,3.90
2017-12-19T18:39:50.292Z,4.00
2017-12-19T18:42:16.558Z,3.90
2017-12-19T18:44:42.849Z,4.00
2017-12-19T18:47:09.121Z,3.90
2017-12-19T18:49:36.443Z,4.00
2017-12-19T18:52:02.749Z,3.90
2017-12-19T18:54:29.068Z,3.80
2017-12-19T18:56:55.348Z,3.90
2017-12-19T18:59:21.609Z,4.00
2017-12-19T19:01:47.873Z,4.00
2017-12-19T19:04:14.492Z,4.00
2017-12-19T19:06:40.841Z,4.00
2017-12-19T19:09:07.559Z,4.10
2017-12-19T19:11:33.929Z,4.10
2017-12-19T19:14:00.224Z,4.00
2017-12-19T19:16:26.877Z,4.10
2017-12-19T19:18:53.843Z,4.10
2017-12-19T19:21:20.484Z,4.10
2017-12-19T19:23:47.084Z,4.10
2017-12-19T19:26:13.797Z,4.00
2017-12-19T19:28:40.812Z,4.00
2017-12-19T19:31:07.127Z,4.00
2017-12-19T19:33:33.445Z,4.10
2017-12-19T19:35:59.771Z,4.20
2017-12-19T19:38:27.225Z,4.30
2017-12-19T19:40:55.687Z,4.40
2017-12-19T19:43:21.990Z,4.50
2017-12-19T19:45:48.365Z,4.50
2017-12-19T19:48:15.058Z,4.70
2017-12-19T19:50:41.335Z,4.70
2017-12-19T19:53:08.093Z,4.60
2017-12-19T19:55:34.447Z,4.70
2017-12-19T19:58:00.784Z,4.60
2017-12-19T20:00:27.107Z,4.50
2017-12-19T20:02:53.482Z,4.60
2017-12-19T20:05:19.808Z,4.60
2017-12-19T20:07:46.130Z,4.60
2017-12-19T20:10:12.499Z,4.70
2017-12-19T20:12:39.193Z,4.70
2017-12-19T20:15:06.133Z,4.70
2017-12-19T20:17:33.305Z,4.60
2017-12-19T20:19:59.724Z,4.50
2017-12-19T20:22:25.994Z,4.60
2017-12-19T20:24:54.313Z,4.60
2017-12-19T20:27:21.015Z,4.60
2017-12-19T20:29:47.696Z,4.60
2017-12-19T20:32:14.004Z,4.70
2017-12-19T20:34:41.234Z,4.40
2017-12-19T20:37:08.404Z,4.30
2017-12-19T20:39:35.217Z,4.30
2017-12-19T20:42:02.436Z,4.30
2017-12-19T20:44:30.008Z,4.20
2017-12-19T20:46:58.099Z,4.30
2017-12-19T20:49:24.847Z,4.30
2017-12-19T20:51:52.674Z,4.30
2017-12-19T20:54:19.838Z,4.30
2017-12-19T20:56:46.531Z,4.10
2017-12-19T20:59:13.128Z,4.10
2017-12-19T21:01:40.390Z,4.40
2017-12-19T21:04:06.696Z,4.40
2017-12-19T21:06:33.007Z,4.30
2017-12-19T21:08:59.322Z,4.10
2017-12-19T21:11:25.615Z,4.10
2017-12-19T21:13:51.911Z,4.10
2017-12-19T21:16:18.221Z,4.10
2017-12-19T21:18:44.572Z,4.20
2017-12-19T21:21:11.649Z,4.10
2017-12-19T21:23:38.016Z,4.00
2017-12-19T21:26:05.433Z,3.80
2017-12-19T21:28:31.733Z,3.70
2017-12-19T21:30:58.963Z,3.90
2017-12-19T21:33:25.358Z,3.90
2017-12-19T21:35:51.646Z,4.00
2017-12-19T21:38:17.944Z,4.10
2017-12-19T21:40:44.182Z,3.90
2017-12-19T21:43:10.839Z,4.00
2017-12-19T21:45:37.118Z,4.10
2017-12-19T21:48:03.390Z,4.20
2017-12-19T21:50:29.654Z,4.30
2017-12-19T21:52:56.283Z,4.40
2017-12-19T21:55:22.884Z,4.60
2017-12-19T21:57:49.128Z,4.60
2017-12-19T22:00:15.430Z,4.50
2017-12-19T22:02:44.046Z,4.50
2017-12-19T22:05:11.166Z,4.50
2017-12-19T22:07:37.401Z,4.40
2017-12-19T22:10:03.658Z,4.30
2017-12-19T22:12:30.011Z,4.10
2017-12-19T22:14:59.780Z,4.00
2017-12-19T22:17:26.084Z,4.00
2017-12-19T22:19:52.415Z,4.00
2017-12-19T22:22:18.715Z,4.00
2017-12-19T22:24:44.982Z,4.00
2017-12-19T22:27:11.234Z,4.10
2017-12-19T22:29:38.524Z,4.00
2017-12-19T22:32:05.124Z,4.00
2017-12-19T22:34:31.443Z,4.00
2017-12-19T22:36:57.658Z,3.90
2017-12-19T22:39:23.925Z,3.70
2017-12-19T22:41:50.164Z,3.70
2017-12-19T22:44:16.445Z,3.70
2017-12-19T22:46:42.683Z,3.90
2017-12-19T22:49:08.926Z,3.80
2017-12-19T22:51:35.205Z,3.70
2017-12-19T22:54:01.425Z,3.70
2017-12-19T22:56:27.652Z,3.60
2017-12-19T22:58:53.894Z,3.60
2017-12-19T23:01:20.142Z,3.60
2017-12-19T23:03:46.349Z,3.40
2017-12-19T23:06:12.595Z,3.30
2017-12-19T23:08:38.805Z,3.40
2017-12-19T23:11:05.051Z,3.30
2017-12-19T23:13:31.289Z,3.50
2017-12-19T23:15:57.534Z,3.60
2017-12-19T23:18:23.769Z,3.50
2017-12-19T23:20:49.974Z,3.60
2017-12-19T23:23:16.246Z,3.70
2017-12-19T23:25:42.464Z,3.70
2017-12-19T23:28:09.470Z,3.80
2017-12-19T23:30:35.755Z,3.60
2017-12-19T23:33:01.991Z,3.60
2017-12-19T23:35:28.207Z,3.70
2017-12-19T23:37:54.431Z,3.70
2017-12-19T23:40:20.651Z,3.70
2017-12-19T23:42:47.245Z,3.70
2017-12-19T23:45:13.491Z,3.70
2017-12-19T23:47:39.709Z,3.70
2017-12-19T23:50:05.937Z,3.80
2017-12-19T23:52:32.155Z,3.70
2017-12-19T23:54:58.362Z,3.60
2017-12-19T23:57:24.627Z,3.60
2017-12-19T23:59:50.860Z,3.80
